createdAt,value
2022-10-01T00:01:27.514Z,33.50
2022-10-01T00:04:01.338Z,27.30
2022-10-01T00:06:33.999Z,33.20
2022-10-01T00:09:06.999Z,26.20
2022-10-01T00:11:39.872Z,27.60
2022-10-01T00:14:12.872Z,36.10
2022-10-01T00:16:45.856Z,29.50
2022-10-01T00:19:18.924Z,31.70
2022-10-01T00:21:51.609Z,35.80
2022-10-01T00:24:24.301Z,31.70
2022-10-01T00:26:57.903Z,29.40
2022-10-01T00:29:32.112Z,35.00
2022-10-01T00:32:05.372Z,28.90
2022-10-01T00:34:38.100Z,33.90
2022-10-01T00:37:11.073Z,25.50
2022-10-01T00:39:44.429Z,31.90
2022-10-01T00:42:24.840Z,27.90
2022-10-01T00:44:58.544Z,32.90
2022-10-01T00:47:37.979Z,33.10
2022-10-01T00:50:19.756Z,33.90
2022-10-01T00:53:01.117Z,25.50
2022-10-01T00:55:37.592Z,31.70
2022-10-01T00:58:11.803Z,30.50
2022-10-01T01:00:45.126Z,26.20
2022-10-01T01:03:18.834Z,27.50
2022-10-01T01:05:51.717Z,32.10
2022-10-01T01:08:24.903Z,30.30
2022-10-01T01:11:08.106Z,32.00
2022-10-01T01:13:51.268Z,34.50
2022-10-01T01:16:34.277Z,31.30
2022-10-01T01:19:20.885Z,26.20
2022-10-01T01:22:00.677Z,29.20
2022-10-01T01:24:45.739Z,29.20
2022-10-01T01:27:31.631Z,30.80
2022-10-01T01:30:09.196Z,29.10
2022-10-01T01:32:52.997Z,32.20
2022-10-01T01:35:32.416Z,29.50
2022-10-01T01:38:09.774Z,36.90
2022-10-01T01:40:45.916Z,36.40
2022-10-01T01:43:24.634Z,27.90
2022-10-01T01:45:59.925Z,31.30
2022-10-01T01:48:36.547Z,32.50
2022-10-01T01:51:18.158Z,33.90
2022-10-01T01:53:50.963Z,32.00
2022-10-01T01:56:24.128Z,38.50
2022-10-01T01:58:58.528Z,34.40
2022-10-01T02:01:42.488Z,33.80
2022-10-01T02:04:20.790Z,27.10
2022-10-01T02:07:17.220Z,31.00
2022-10-01T02:10:01.574Z,31.80
2022-10-01T02:12:50.330Z,32.20
2022-10-01T02:15:32.463Z,24.20
2022-10-01T02:18:16.693Z,22.70
2022-10-01T02:20:56.136Z,31.00
2022-10-01T02:23:33.466Z,21.90
2022-10-01T02:26:12.233Z,27.80
2022-10-01T02:28:49.014Z,37.60
2022-10-01T02:31:24.054Z,49.30
2022-10-01T02:33:59.857Z,39.50
2022-10-01T02:36:35.934Z,54.90
2022-10-01T02:39:10.344Z,50.30
2022-10-01T02:41:45.760Z,28.90
2022-10-01T02:44:23.632Z,74.70
2022-10-01T02:47:03.469Z,40.80
2022-10-01T02:49:37.246Z,70.60
2022-10-01T02:52:18.902Z,51.10
2022-10-01T02:54:57.975Z,86.70
2022-10-01T02:57:31.362Z,50.60
2022-10-01T03:00:07.932Z,45.80
2022-10-01T03:02:40.715Z,24.10
2022-10-01T03:05:15.005Z,56.60
2022-10-01T03:07:48.610Z,50.30
2022-10-01T03:10:22.007Z,20.80
2022-10-01T03:12:54.952Z,29.60
2022-10-01T03:15:27.530Z,49.40
2022-10-01T03:18:00.223Z,45.70
2022-10-01T03:20:32.992Z,46.90
2022-10-01T03:23:05.668Z,47.20
2022-10-01T03:25:38.357Z,39.40
2022-10-01T03:28:11.111Z,34.60
2022-10-01T03:30:43.709Z,29.50
2022-10-01T03:33:16.592Z,38.40
2022-10-01T03:35:49.576Z,40.20
2022-10-01T03:38:22.153Z,35.30
2022-10-01T03:40:54.935Z,37.70
2022-10-01T03:43:29.173Z,31.30
2022-10-01T03:46:02.505Z,30.10
2022-10-01T03:48:35.343Z,44.60
2022-10-01T03:51:08.704Z,22.60
2022-10-01T03:53:41.513Z,29.90
2022-10-01T03:56:14.403Z,20.30
2022-10-01T03:58:47.180Z,23.50
2022-10-01T04:01:20.616Z,28.80
2022-10-01T04:03:53.570Z,29.20
2022-10-01T04:06:26.555Z,24.60
2022-10-01T04:08:59.552Z,28.10
2022-10-01T04:11:32.523Z,35.40
2022-10-01T04:14:06.026Z,19.40
2022-10-01T04:16:38.733Z,20.80
2022-10-01T04:19:11.378Z,28.90
2022-10-01T04:21:44.326Z,35.70
2022-10-01T04:24:16.943Z,60.90
2022-10-01T04:26:51.870Z,56.40
2022-10-01T04:29:24.659Z,30.40
2022-10-01T04:31:58.532Z,34.40
2022-10-01T04:34:45.193Z,26.50
2022-10-01T04:37:17.880Z,33.90
2022-10-01T04:39:50.747Z,35.50
2022-10-01T04:42:23.724Z,85.40
2022-10-01T04:44:57.633Z,28.00
2022-10-01T04:47:32.678Z,45.70
2022-10-01T04:50:08.828Z,31.90
2022-10-01T04:52:41.554Z,29.30
2022-10-01T04:55:15.940Z,29.20
2022-10-01T04:57:49.583Z,43.00
2022-10-01T05:00:24.925Z,44.60
2022-10-01T05:02:58.475Z,30.00
2022-10-01T05:05:33.305Z,35.50
2022-10-01T05:08:09.367Z,18.10
2022-10-01T05:10:42.250Z,37.80
2022-10-01T05:13:14.927Z,26.40
2022-10-01T05:15:49.441Z,40.60
2022-10-01T05:18:22.327Z,29.00
2022-10-01T05:20:57.984Z,26.70
2022-10-01T05:23:30.766Z,26.60
2022-10-01T05:26:05.905Z,23.50
2022-10-01T05:28:44.932Z,22.80
2022-10-01T05:31:18.959Z,16.40
2022-10-01T05:33:52.005Z,18.00
2022-10-01T05:36:25.019Z,29.80
2022-10-01T05:38:57.615Z,20.70
2022-10-01T05:41:30.506Z,16.90
2022-10-01T05:44:03.688Z,16.10
2022-10-01T05:46:36.488Z,20.00
2022-10-01T05:49:09.649Z,22.70
2022-10-01T05:51:42.572Z,26.80
2022-10-01T05:54:16.549Z,16.20
2022-10-01T05:56:49.120Z,22.60
2022-10-01T05:59:21.699Z,33.50
2022-10-01T06:01:54.845Z,25.20
2022-10-01T06:04:28.289Z,21.00
2022-10-01T06:07:01.244Z,22.00
2022-10-01T06:09:33.994Z,26.10
2022-10-01T06:12:10.734Z,22.10
2022-10-01T06:14:43.610Z,18.50
2022-10-01T06:17:16.294Z,26.50
2022-10-01T06:19:49.072Z,19.20
2022-10-01T06:22:21.666Z,20.70
2022-10-01T06:24:56.719Z,18.90
2022-10-01T06:27:29.875Z,27.80
2022-10-01T06:30:02.774Z,25.30
2022-10-01T06:32:35.956Z,23.90
2022-10-01T06:35:10.228Z,22.30
2022-10-01T06:37:43.193Z,19.00
2022-10-01T06:40:16.349Z,24.80
2022-10-01T06:42:56.748Z,20.80
2022-10-01T06:48:03.643Z,27.80
2022-10-01T06:50:37.936Z,16.60
2022-10-01T06:53:11.962Z,19.80
2022-10-01T06:55:45.509Z,26.00
2022-10-01T06:58:22.747Z,16.20
2022-10-01T07:01:01.678Z,19.30
2022-10-01T07:03:35.198Z,22.70
2022-10-01T07:06:11.657Z,17.40
2022-10-01T07:08:44.398Z,19.30
2022-10-01T07:11:17.238Z,20.70
2022-10-01T07:13:54.507Z,21.10
2022-10-01T07:16:27.490Z,21.60
2022-10-01T07:19:00.249Z,19.00
2022-10-01T07:21:33.240Z,28.80
2022-10-01T07:24:06.848Z,18.40
2022-10-01T07:26:39.711Z,20.70
2022-10-01T07:29:12.394Z,19.70
2022-10-01T07:31:45.126Z,19.80
2022-10-01T07:34:38.357Z,18.80
2022-10-01T07:37:11.429Z,21.30
2022-10-01T07:39:45.498Z,25.00
2022-10-01T07:42:18.241Z,21.00
2022-10-01T07:44:51.411Z,21.70
2022-10-01T07:47:24.211Z,16.90
2022-10-01T07:49:56.920Z,24.20
2022-10-01T07:52:29.828Z,24.90
2022-10-01T07:55:02.841Z,18.80
2022-10-01T07:57:35.623Z,23.80
2022-10-01T08:00:11.285Z,23.70
2022-10-01T08:02:49.939Z,22.10
2022-10-01T08:05:25.744Z,20.80
2022-10-01T08:08:01.700Z,22.90
2022-10-01T08:10:36.804Z,23.30
2022-10-01T08:13:14.813Z,26.90
2022-10-01T08:15:50.736Z,22.40
2022-10-01T08:18:24.674Z,20.30
2022-10-01T08:20:57.389Z,23.00
2022-10-01T08:23:30.543Z,22.60
2022-10-01T08:26:07.627Z,21.80
2022-10-01T08:28:41.398Z,23.40
2022-10-01T08:31:14.150Z,23.40
2022-10-01T08:33:48.265Z,19.10
2022-10-01T08:36:22.334Z,20.00
2022-10-01T08:38:55.060Z,17.40
2022-10-01T08:41:49.863Z,19.10
2022-10-01T08:44:28.133Z,16.40
2022-10-01T08:47:09.412Z,15.50
2022-10-01T08:49:45.984Z,14.30
2022-10-01T08:52:25.864Z,15.30
2022-10-01T08:55:03.881Z,12.30
2022-10-01T08:57:44.930Z,14.80
2022-10-01T09:00:20.873Z,12.50
2022-10-01T09:02:54.109Z,12.50
2022-10-01T09:05:38.593Z,11.70
2022-10-01T09:08:25.505Z,15.80
2022-10-01T09:11:06.034Z,13.10
2022-10-01T09:14:04.331Z,11.60
2022-10-01T09:16:46.764Z,14.10
2022-10-01T09:19:40.797Z,13.10
2022-10-01T09:22:28.238Z,11.50
2022-10-01T09:25:12.463Z,10.50
2022-10-01T09:27:46.065Z,12.60
2022-10-01T09:30:22.628Z,11.70
2022-10-01T09:33:01.328Z,13.40
2022-10-01T09:35:44.707Z,13.00
2022-10-01T09:38:24.587Z,16.80
2022-10-01T09:40:59.569Z,11.60
2022-10-01T09:43:35.449Z,11.30
2022-10-01T09:46:13.741Z,12.70
2022-10-01T09:48:56.055Z,13.30
2022-10-01T09:51:40.208Z,17.90
2022-10-01T09:54:21.585Z,13.90
2022-10-01T09:57:01.238Z,13.00
2022-10-01T09:59:41.745Z,11.60
2022-10-01T10:02:27.034Z,12.50
2022-10-01T10:05:10.223Z,14.10
2022-10-01T10:07:48.282Z,10.90
2022-10-01T10:10:28.777Z,10.60
2022-10-01T10:13:06.758Z,11.50
2022-10-01T10:15:44.019Z,10.10
2022-10-01T10:18:23.132Z,13.90
2022-10-01T10:20:57.945Z,9.50
2022-10-01T10:23:31.845Z,9.40
2022-10-01T10:26:07.909Z,11.90
2022-10-01T10:28:48.318Z,9.20
2022-10-01T10:31:24.436Z,9.20
2022-10-01T10:34:06.902Z,7.70
2022-10-01T10:36:40.936Z,6.70
2022-10-01T10:39:24.650Z,10.00
2022-10-01T10:42:00.225Z,6.40
2022-10-01T10:44:36.313Z,9.30
2022-10-01T10:47:13.787Z,7.90
2022-10-01T10:49:50.044Z,9.40
2022-10-01T10:52:32.607Z,8.30
2022-10-01T10:55:25.258Z,7.90
2022-10-01T10:58:10.574Z,13.10
2022-10-01T11:00:51.840Z,9.30
2022-10-01T11:03:28.191Z,8.20
2022-10-01T11:06:11.447Z,8.40
2022-10-01T11:08:46.694Z,10.20
2022-10-01T11:11:34.112Z,9.00
2022-10-01T11:14:23.904Z,11.10
2022-10-01T11:17:18.885Z,7.30
2022-10-01T11:20:21.053Z,6.40
2022-10-01T11:23:16.064Z,7.70
2022-10-01T11:25:59.696Z,8.20
2022-10-01T11:28:47.067Z,7.60
2022-10-01T11:31:32.051Z,7.30
2022-10-01T11:34:41.556Z,9.60
2022-10-01T11:37:31.899Z,8.20
2022-10-01T11:40:17.107Z,6.10
2022-10-01T11:42:53.131Z,9.00
2022-10-01T11:45:30.471Z,6.80
2022-10-01T11:48:06.943Z,6.50
2022-10-01T11:50:44.316Z,7.70
2022-10-01T11:53:23.546Z,6.30
2022-10-01T11:56:19.875Z,5.70
2022-10-01T11:58:58.610Z,7.90
2022-10-01T12:01:37.184Z,7.00
2022-10-01T12:04:22.349Z,4.70
2022-10-01T12:07:04.399Z,3.50
2022-10-01T12:09:54.687Z,3.20
2022-10-01T12:12:32.436Z,3.30
2022-10-01T12:15:15.425Z,2.70
2022-10-01T12:17:53.980Z,2.90
2022-10-01T12:20:32.855Z,3.30
2022-10-01T12:23:09.517Z,2.50
2022-10-01T12:25:52.469Z,3.10
2022-10-01T12:28:32.755Z,4.10
2022-10-01T12:34:15.356Z,3.00
2022-10-01T12:37:04.549Z,2.50
2022-10-01T12:39:55.104Z,2.00
2022-10-01T12:43:04.438Z,2.10
2022-10-01T12:45:52.942Z,5.10
2022-10-01T12:48:33.570Z,2.10
2022-10-01T12:51:28.860Z,3.00
2022-10-01T12:54:13.459Z,2.20
2022-10-01T12:56:51.655Z,2.00
2022-10-01T12:59:59.453Z,4.70
2022-10-01T13:03:00.279Z,3.40
2022-10-01T13:05:45.044Z,2.00
2022-10-01T13:08:35.127Z,2.30
2022-10-01T13:11:20.871Z,2.10
2022-10-01T13:13:56.570Z,2.70
2022-10-01T13:16:38.229Z,4.00
2022-10-01T13:19:18.521Z,2.90
2022-10-01T13:22:09.320Z,3.10
2022-10-01T13:24:49.788Z,2.20
2022-10-01T13:27:30.921Z,1.80
2022-10-01T13:30:08.188Z,3.30
2022-10-01T13:32:54.348Z,2.10
2022-10-01T13:35:35.612Z,4.50
2022-10-01T13:38:40.562Z,5.10
2022-10-01T13:41:24.787Z,2.70
2022-10-01T13:44:05.789Z,3.90
2022-10-01T13:46:53.051Z,3.50
2022-10-01T13:49:29.280Z,3.20
2022-10-01T13:52:03.372Z,2.30
2022-10-01T13:54:46.921Z,1.90
2022-10-01T13:57:34.289Z,4.80
2022-10-01T14:00:24.836Z,2.60
2022-10-01T14:03:28.972Z,2.70
2022-10-01T14:06:03.646Z,5.20
2022-10-01T14:08:45.243Z,4.80
2022-10-01T14:11:43.884Z,3.00
2022-10-01T14:14:42.447Z,1.90
2022-10-01T14:17:20.239Z,2.90
2022-10-01T14:19:53.619Z,4.30
2022-10-01T14:22:54.683Z,3.90
2022-10-01T14:25:45.188Z,3.00
2022-10-01T14:31:17.408Z,4.40
2022-10-01T14:34:20.251Z,2.80
2022-10-01T14:36:55.490Z,2.40
2022-10-01T14:39:30.873Z,6.90
2022-10-01T14:42:16.961Z,3.20
2022-10-01T14:44:50.633Z,3.70
2022-10-01T14:47:28.025Z,3.10
2022-10-01T14:50:12.791Z,2.80
2022-10-01T14:52:49.535Z,5.60
2022-10-01T14:55:24.644Z,6.60
2022-10-01T14:57:58.916Z,10.40
2022-10-01T15:00:35.011Z,7.60
2022-10-01T15:03:15.957Z,9.50
2022-10-01T15:05:50.864Z,4.30
2022-10-01T15:08:37.079Z,11.60
2022-10-01T15:11:15.823Z,4.30
2022-10-01T15:13:51.551Z,7.70
2022-10-01T15:16:30.108Z,8.20
2022-10-01T15:19:08.276Z,5.90
2022-10-01T15:21:45.875Z,3.50
2022-10-01T15:24:27.571Z,4.40
2022-10-01T15:27:02.039Z,3.90
2022-10-01T15:29:35.809Z,4.50
2022-10-01T15:32:08.853Z,4.70
2022-10-01T15:34:44.632Z,7.30
2022-10-01T15:37:22.433Z,3.90
2022-10-01T15:39:56.551Z,4.50
2022-10-01T15:42:32.984Z,10.20
2022-10-01T15:45:26.970Z,4.90
2022-10-01T15:47:59.559Z,5.10
2022-10-01T15:50:36.815Z,4.20
2022-10-01T15:53:20.387Z,5.70
2022-10-01T15:55:57.128Z,5.20
2022-10-01T15:58:35.241Z,5.50
2022-10-01T16:01:10.796Z,6.10
2022-10-01T16:03:52.767Z,7.00
2022-10-01T16:06:28.579Z,4.90
2022-10-01T16:12:25.019Z,3.90
2022-10-01T16:15:06.440Z,4.30
2022-10-01T16:17:40.465Z,4.40
2022-10-01T16:20:46.626Z,3.80
2022-10-01T16:23:42.020Z,5.20
2022-10-01T16:26:40.462Z,5.20
2022-10-01T16:29:27.588Z,5.30
2022-10-01T16:35:02.253Z,4.60
2022-10-01T16:37:37.164Z,4.50
2022-10-01T16:40:15.935Z,5.70
2022-10-01T16:42:50.770Z,6.80
2022-10-01T16:45:26.065Z,2.90
2022-10-01T16:47:59.216Z,5.00
2022-10-01T16:50:31.867Z,6.90
2022-10-01T16:53:04.527Z,7.10
2022-10-01T16:55:38.208Z,4.40
2022-10-01T16:58:11.223Z,4.40
2022-10-01T17:00:44.211Z,4.10
2022-10-01T17:03:20.949Z,2.60
2022-10-01T17:05:53.655Z,3.00
2022-10-01T17:08:26.392Z,4.30
2022-10-01T17:11:04.345Z,2.60
2022-10-01T17:13:38.317Z,3.20
2022-10-01T17:16:11.465Z,5.50
2022-10-01T17:18:44.247Z,5.50
2022-10-01T17:21:16.933Z,4.50
2022-10-01T17:23:53.361Z,4.70
2022-10-01T17:26:26.553Z,6.60
2022-10-01T17:28:59.347Z,4.00
2022-10-01T17:31:32.945Z,6.10
2022-10-01T17:34:05.872Z,5.30
2022-10-01T17:36:39.024Z,5.40
2022-10-01T17:39:11.910Z,3.90
2022-10-01T17:41:44.797Z,3.50
2022-10-01T17:44:17.790Z,3.90
2022-10-01T17:46:50.585Z,4.50
2022-10-01T17:49:23.660Z,3.80
2022-10-01T17:51:56.539Z,5.80
2022-10-01T17:54:29.783Z,5.10
2022-10-01T17:57:02.412Z,5.60
2022-10-01T17:59:35.177Z,5.80
2022-10-01T18:02:29.575Z,5.70
2022-10-01T18:05:03.698Z,5.10
2022-10-01T18:07:37.500Z,7.10
2022-10-01T18:10:14.010Z,4.40
2022-10-01T18:12:46.641Z,6.80
2022-10-01T18:15:21.130Z,5.90
2022-10-01T18:18:38.102Z,5.90
2022-10-01T18:20:47.113Z,6.10
2022-10-01T18:23:20.005Z,8.70
2022-10-01T18:25:52.781Z,8.80
2022-10-01T18:28:27.217Z,6.20
2022-10-01T18:31:24.460Z,9.60
2022-10-01T18:34:00.847Z,8.90
2022-10-01T18:36:43.955Z,6.10
2022-10-01T18:39:25.150Z,9.10
2022-10-01T18:41:59.355Z,6.90
2022-10-01T18:44:32.338Z,10.90
2022-10-01T18:47:18.191Z,8.20
2022-10-01T18:50:08.678Z,9.70
2022-10-01T18:52:55.836Z,6.90
2022-10-01T18:55:47.548Z,6.90
2022-10-01T18:58:45.550Z,7.70
2022-10-01T19:01:31.128Z,7.60
2022-10-01T19:04:30.109Z,8.30
2022-10-01T19:07:15.728Z,7.00
2022-10-01T19:09:59.637Z,7.20
2022-10-01T19:12:50.729Z,6.20
2022-10-01T19:15:40.037Z,6.70
2022-10-01T19:18:37.404Z,5.90
2022-10-01T19:21:28.924Z,10.40
2022-10-01T19:24:36.864Z,7.40
2022-10-01T19:27:25.888Z,7.70
2022-10-01T19:30:07.629Z,6.30
2022-10-01T19:32:47.720Z,5.50
2022-10-01T19:35:24.650Z,3.70
2022-10-01T19:38:04.438Z,6.50
2022-10-01T19:40:43.161Z,6.80
2022-10-01T19:43:28.353Z,6.50
2022-10-01T19:46:15.384Z,9.00
2022-10-01T19:48:56.107Z,7.20
2022-10-01T19:51:40.675Z,7.20
2022-10-01T19:54:21.313Z,5.60
2022-10-01T19:57:03.151Z,5.80
2022-10-01T19:59:36.040Z,7.90
2022-10-01T20:02:19.406Z,5.40
2022-10-01T20:04:59.111Z,8.70
2022-10-01T20:07:42.030Z,9.00
2022-10-01T20:10:25.563Z,10.60
2022-10-01T20:13:17.055Z,9.20
2022-10-01T20:16:00.471Z,15.70
2022-10-01T20:18:41.543Z,9.40
2022-10-01T20:21:32.092Z,13.10
2022-10-01T20:26:50.675Z,6.50
2022-10-01T20:29:39.724Z,6.70
2022-10-01T20:32:20.976Z,9.30
2022-10-01T20:35:11.132Z,9.00
2022-10-01T20:38:00.292Z,6.60
2022-10-01T20:40:40.122Z,8.10
2022-10-01T20:43:21.075Z,11.20
2022-10-01T20:45:56.820Z,7.20
2022-10-01T20:48:37.278Z,9.70
2022-10-01T20:51:16.278Z,6.90
2022-10-01T20:53:55.354Z,4.60
2022-10-01T20:56:33.686Z,7.40
2022-10-01T20:59:13.479Z,8.50
2022-10-01T21:02:02.626Z,7.10
2022-10-01T21:04:42.013Z,5.80
2022-10-01T21:07:30.084Z,5.70
2022-10-01T21:10:05.494Z,6.30
2022-10-01T21:12:46.053Z,7.70
2022-10-01T21:15:19.640Z,6.30
2022-10-01T21:18:01.255Z,6.60
2022-10-01T21:20:51.332Z,7.60
2022-10-01T21:23:45.353Z,8.20
2022-10-01T21:26:29.666Z,7.90
2022-10-01T21:29:26.341Z,6.20
2022-10-01T21:32:15.373Z,5.40
2022-10-01T21:35:02.349Z,7.70
2022-10-01T21:37:41.125Z,4.70
2022-10-01T21:40:26.899Z,5.00
2022-10-01T21:43:11.149Z,4.50
2022-10-01T21:45:53.133Z,5.50
2022-10-01T21:48:41.592Z,5.90
2022-10-01T21:51:25.242Z,5.30
2022-10-01T21:54:45.145Z,5.30
2022-10-01T21:57:43.512Z,6.10
2022-10-01T22:00:21.676Z,8.70
2022-10-01T22:03:11.191Z,6.20
2022-10-01T22:05:52.154Z,5.00
2022-10-01T22:08:45.830Z,8.00
2022-10-01T22:11:23.531Z,4.50
2022-10-01T22:14:00.312Z,6.00
2022-10-01T22:16:39.509Z,5.80
2022-10-01T22:19:18.941Z,5.50
2022-10-01T22:21:58.231Z,7.80
2022-10-01T22:24:34.853Z,5.60
2022-10-01T22:27:13.795Z,6.00
2022-10-01T22:29:53.352Z,4.70
2022-10-01T22:32:30.642Z,6.90
2022-10-01T22:35:08.546Z,8.00
2022-10-01T22:37:47.034Z,9.90
2022-10-01T22:40:24.613Z,7.00
2022-10-01T22:43:06.038Z,5.20
2022-10-01T22:45:56.169Z,7.40
2022-10-01T22:48:47.441Z,4.80
2022-10-01T22:51:39.030Z,4.30
2022-10-01T22:54:45.748Z,3.40
2022-10-01T22:57:37.675Z,4.00
2022-10-01T23:00:13.489Z,3.80
2022-10-01T23:02:49.512Z,3.20
2022-10-01T23:05:41.517Z,5.00
2022-10-01T23:08:28.738Z,2.40
2022-10-01T23:11:13.909Z,4.30
2022-10-01T23:13:57.784Z,3.70
2022-10-01T23:16:40.832Z,4.90
2022-10-01T23:19:32.864Z,4.90
2022-10-01T23:22:14.946Z,4.30
2022-10-01T23:25:02.747Z,2.10
2022-10-01T23:27:47.862Z,5.20
2022-10-01T23:30:22.396Z,1.90
2022-10-01T23:33:35.773Z,3.40
2022-10-01T23:36:18.310Z,2.10
2022-10-01T23:39:20.529Z,4.70
2022-10-01T23:41:58.745Z,2.90
2022-10-01T23:44:40.253Z,2.80
2022-10-01T23:47:21.640Z,2.90
2022-10-01T23:49:58.637Z,2.70
2022-10-01T23:52:40.102Z,2.50
2022-10-01T23:55:40.841Z,3.80
2022-10-01T23:58:18.932Z,4.20
